Terminal Aerodrome Forecast
Issued by NWS Atlanta, GA

Home | Current Version | Previous Version | Text Only | Print | Product List | Glossary On
Versions: 1 2 3 4 5 6 7 8 9 10 11 12 13 14 15 16 17 18 19 20 21 22 23 24 25 26 27 28 29 30 31 32 33
689
FTAK31 PAJN 300732 AAA
TAFAHN
TAF AMD
PAHN 300732Z 3008/0106 31013KT P6SM SCT150
     FM301200 VRB05KT P6SM SCT060 OVC100
     FM301800 10007KT P6SM OVC060
     FM302100 11010KT P6SM VCSH OVC050
     FM010100 10008KT P6SM VCSH SCT030 OVC040
      AMD LTD TO CLD VIS AND WIND=

USA.gov is the U.S. government's official web portal to all federal, state and local government web resources and services.